Time;durP1;ratioP1;P1;durP2;ratioP2;P2;SDS_P1;SDS_P2;PMS_P1;PMS_P2;Temp;Humidity;BMP_temperature;BMP_pressure;BME280_temperature;BME280_humidity;BME280_pressure;Samples;Min_cycle;Max_cycle;Signal;HPM_P1;HPM_P2
2022/03/05 00:01:21;;;;;;;17.23;6.32;;;4.90;88.60;;;;;;5050489;28;20542;-65
2022/03/05 00:03:46;;;;;;;12.02;5.30;;;4.90;88.80;;;;;;5056632;28;20052;-64
2022/03/05 00:06:13;;;;;;;10.70;5.20;;;4.80;88.80;;;;;;5052963;28;20054;-64
2022/03/05 00:08:38;;;;;;;11.95;5.43;;;4.80;89.10;;;;;;5035287;28;20037;-64
2022/03/05 00:11:04;;;;;;;9.50;5.63;;;4.70;89.20;;;;;;5035178;28;20019;-64
2022/03/05 00:13:30;;;;;;;10.63;5.65;;;4.70;89.80;;;;;;5052007;28;20120;-64
2022/03/05 00:15:55;;;;;;;14.50;5.57;;;4.70;89.90;;;;;;5051092;28;20121;-64
2022/03/05 00:18:21;;;;;;;12.90;5.85;;;4.50;90.00;;;;;;5044476;28;20032;-64
2022/03/05 00:20:46;;;;;;;9.05;5.22;;;4.50;90.20;;;;;;5053229;28;20030;-63
2022/03/05 00:23:14;;;;;;;9.07;5.07;;;4.40;90.30;;;;;;5040394;28;20037;-64
2022/03/05 00:25:40;;;;;;;9.20;5.05;;;4.40;90.40;;;;;;5055806;28;20078;-64
2022/03/05 00:28:06;;;;;;;13.45;5.78;;;4.30;90.40;;;;;;5050915;28;20036;-65
2022/03/05 00:30:32;;;;;;;11.60;5.50;;;4.30;90.50;;;;;;5039572;28;20025;-64
2022/03/05 00:32:58;;;;;;;11.80;5.45;;;4.30;90.40;;;;;;5038003;28;20029;-64
2022/03/05 00:35:23;;;;;;;8.75;5.18;;;4.30;90.60;;;;;;5042350;28;20061;-64
2022/03/05 00:37:49;;;;;;;12.57;5.57;;;4.30;90.50;;;;;;5041743;28;20063;-65
2022/03/05 00:40:14;;;;;;;15.23;5.93;;;4.30;90.50;;;;;;5059097;28;20475;-65
2022/03/05 00:42:40;;;;;;;11.40;5.72;;;4.30;90.50;;;;;;5054624;28;20041;-65
2022/03/05 00:45:06;;;;;;;10.80;5.35;;;4.20;90.60;;;;;;5053775;28;20102;-65
2022/03/05 00:47:36;;;;;;;12.02;6.47;;;4.30;90.60;;;;;;5050928;28;20035;-65
2022/03/05 00:50:03;;;;;;;13.63;7.00;;;4.20;90.80;;;;;;5053714;28;20037;-65
2022/03/05 00:52:29;;;;;;;13.95;6.88;;;4.20;90.70;;;;;;5041630;28;20087;-65
2022/03/05 00:54:54;;;;;;;14.02;7.05;;;4.20;91.00;;;;;;5040401;28;20432;-65
2022/03/05 00:57:20;;;;;;;11.80;6.78;;;4.20;90.80;;;;;;5042315;28;20032;-64
2022/03/05 00:59:45;;;;;;;12.82;7.03;;;4.20;90.80;;;;;;5056703;28;20095;-65
2022/03/05 01:02:11;;;;;;;11.05;6.68;;;4.10;90.80;;;;;;5040210;28;20068;-65
2022/03/05 01:04:36;;;;;;;14.60;6.65;;;4.10;90.90;;;;;;5072454;28;20495;-65
2022/03/05 01:07:02;;;;;;;11.95;7.32;;;4.10;91.00;;;;;;5062893;28;20075;-65
2022/03/05 01:09:27;;;;;;;14.25;7.45;;;4.00;91.00;;;;;;5068513;28;20028;-64
2022/03/05 01:11:53;;;;;;;15.10;7.00;;;4.00;91.10;;;;;;5050755;28;20022;-65
2022/03/05 01:14:18;;;;;;;13.32;7.13;;;4.00;91.10;;;;;;5034483;28;20431;-65
2022/03/05 01:16:44;;;;;;;11.93;6.80;;;4.00;91.20;;;;;;5063183;28;20064;-66
2022/03/05 01:19:09;;;;;;;11.93;7.07;;;4.00;91.30;;;;;;5050618;28;20480;-64
2022/03/05 01:21:36;;;;;;;15.23;8.00;;;4.00;91.40;;;;;;5046603;28;20087;-64
2022/03/05 01:24:01;;;;;;;14.82;7.28;;;4.00;91.60;;;;;;5031900;28;20124;-65
2022/03/05 01:26:29;;;;;;;14.32;7.28;;;4.00;91.50;;;;;;5046266;28;20108;-64
2022/03/05 01:28:55;;;;;;;12.75;6.85;;;4.00;91.50;;;;;;5051830;28;20029;-64
2022/03/05 01:31:20;;;;;;;13.25;7.00;;;3.90;91.70;;;;;;5048526;28;20028;-64
2022/03/05 01:33:46;;;;;;;10.30;6.63;;;3.90;91.80;;;;;;5050193;28;20033;-63
2022/03/05 01:36:11;;;;;;;12.90;6.78;;;3.90;91.80;;;;;;5064501;28;20035;-64
2022/03/05 01:38:37;;;;;;;13.90;6.35;;;3.80;92.00;;;;;;5049628;28;20072;-64
2022/03/05 01:41:03;;;;;;;12.07;7.80;;;3.80;92.00;;;;;;5031316;28;20064;-64
2022/03/05 01:43:28;;;;;;;13.40;7.35;;;3.80;92.00;;;;;;5047453;28;20465;-65
2022/03/05 01:45:54;;;;;;;13.70;6.90;;;3.80;92.10;;;;;;5049886;28;20523;-64
2022/03/05 01:48:20;;;;;;;10.10;6.30;;;3.80;92.10;;;;;;5050525;28;20381;-64
2022/03/05 01:50:47;;;;;;;14.77;6.35;;;3.80;92.20;;;;;;5048561;28;20025;-64
2022/03/05 01:53:12;;;;;;;14.38;6.30;;;3.70;92.20;;;;;;5025783;28;20036;-64
2022/03/05 01:55:38;;;;;;;11.68;5.95;;;3.70;92.50;;;;;;5051012;28;20028;-64
2022/03/05 01:58:03;;;;;;;16.13;6.45;;;3.70;92.60;;;;;;5035766;28;20061;-64
2022/03/05 02:00:29;;;;;;;12.00;6.40;;;3.70;92.50;;;;;;5030801;28;20052;-64
2022/03/05 02:02:55;;;;;;;12.95;7.03;;;3.70;92.60;;;;;;5032147;28;20052;-64
2022/03/05 02:05:20;;;;;;;14.57;6.57;;;3.70;92.70;;;;;;5050058;28;20472;-64
2022/03/05 02:07:46;;;;;;;16.65;7.38;;;3.60;92.70;;;;;;5049832;28;20040;-64
2022/03/05 02:10:12;;;;;;;13.40;6.63;;;3.60;92.90;;;;;;5049727;28;20032;-64
2022/03/05 02:12:38;;;;;;;12.10;6.38;;;3.60;93.00;;;;;;5049251;28;20036;-64
2022/03/05 02:15:06;;;;;;;14.55;6.72;;;3.60;93.00;;;;;;5050354;28;20090;-64
2022/03/05 02:17:32;;;;;;;13.38;6.53;;;3.50;93.10;;;;;;5044289;28;20033;-64
2022/03/05 02:19:58;;;;;;;11.40;6.70;;;3.50;93.40;;;;;;5042601;28;20047;-64
2022/03/05 02:22:24;;;;;;;14.68;8.10;;;3.50;93.30;;;;;;5049350;28;20592;-64
2022/03/05 02:24:55;;;;;;;16.88;6.80;;;3.40;93.30;;;;;;5029363;28;20041;-64
2022/03/05 02:27:23;;;;;;;12.85;7.07;;;3.40;93.50;;;;;;5039187;28;20031;-65
2022/03/05 02:29:49;;;;;;;16.60;6.97;;;3.30;93.70;;;;;;5049297;28;20048;-64
2022/03/05 02:32:14;;;;;;;10.73;6.32;;;3.30;93.50;;;;;;5046199;28;20059;-65
2022/03/05 02:34:40;;;;;;;14.13;6.72;;;3.30;93.60;;;;;;5048880;28;20104;-64
2022/03/05 02:37:10;;;;;;;12.73;6.78;;;3.20;94.20;;;;;;5048135;28;20047;-64
2022/03/05 02:39:35;;;;;;;11.30;6.45;;;3.20;94.00;;;;;;5049211;28;20033;-64
2022/03/05 02:42:01;;;;;;;12.80;7.28;;;3.20;94.20;;;;;;5050293;28;20032;-64
2022/03/05 02:44:26;;;;;;;13.20;6.28;;;3.20;94.00;;;;;;5051226;28;20056;-64
2022/03/05 02:46:52;;;;;;;18.75;7.60;;;3.20;94.30;;;;;;5045781;28;20083;-64
2022/03/05 02:49:17;;;;;;;11.43;6.78;;;3.10;94.40;;;;;;5054773;28;20460;-63
2022/03/05 02:51:43;;;;;;;12.20;7.25;;;3.10;94.90;;;;;;5053133;28;20029;-64
2022/03/05 02:54:08;;;;;;;14.63;6.53;;;3.10;94.70;;;;;;5054471;28;20468;-64
2022/03/05 02:56:34;;;;;;;11.65;6.60;;;3.00;94.60;;;;;;5052303;28;20029;-64
2022/03/05 02:58:59;;;;;;;11.80;6.53;;;3.10;94.60;;;;;;5054290;28;20632;-63
2022/03/05 03:01:25;;;;;;;10.48;6.38;;;3.10;94.60;;;;;;5036781;28;20033;-64
2022/03/05 03:03:51;;;;;;;13.73;5.30;;;3.10;94.60;;;;;;5034064;28;20088;-64
2022/03/05 03:06:16;;;;;;;13.93;7.50;;;3.10;94.80;;;;;;5049449;28;20039;-64
2022/03/05 03:08:42;;;;;;;13.73;6.88;;;3.10;94.90;;;;;;5053934;28;20057;-64
2022/03/05 03:11:08;;;;;;;12.43;6.82;;;3.10;94.80;;;;;;5037118;28;20500;-64
2022/03/05 03:13:33;;;;;;;13.20;6.75;;;3.00;94.80;;;;;;5041758;28;20068;-63
2022/03/05 03:15:59;;;;;;;13.38;7.22;;;3.00;94.80;;;;;;5041944;28;20022;-64
2022/03/05 03:18:24;;;;;;;13.48;6.97;;;3.10;94.90;;;;;;5026064;28;20021;-64
2022/03/05 03:20:50;;;;;;;14.82;6.68;;;3.00;94.80;;;;;;5052199;28;20070;-64
2022/03/05 03:23:15;;;;;;;11.25;6.13;;;3.10;94.90;;;;;;5053662;28;20025;-64
2022/03/05 03:25:41;;;;;;;11.98;6.90;;;3.10;95.00;;;;;;5044613;28;20488;-64
2022/03/05 03:28:07;;;;;;;10.95;6.78;;;3.10;95.00;;;;;;5053398;28;20033;-64
2022/03/05 03:30:33;;;;;;;16.73;8.40;;;3.00;95.00;;;;;;5052467;28;20120;-63
2022/03/05 03:32:58;;;;;;;12.45;7.43;;;2.90;95.10;;;;;;5053594;28;20154;-64
2022/03/05 03:35:24;;;;;;;14.05;6.70;;;3.00;95.20;;;;;;5052617;28;20060;-64
2022/03/05 03:37:50;;;;;;;12.98;6.63;;;3.00;95.20;;;;;;5050142;28;20024;-65
2022/03/05 03:40:18;;;;;;;14.38;6.78;;;3.00;95.20;;;;;;5052324;28;20025;-64
2022/03/05 03:42:46;;;;;;;12.13;6.90;;;2.90;95.30;;;;;;5036539;28;20040;-64
2022/03/05 03:45:12;;;;;;;13.38;7.32;;;2.90;95.40;;;;;;5041662;28;20091;-64
2022/03/05 03:47:40;;;;;;;16.08;7.05;;;2.90;95.40;;;;;;5053701;28;20049;-64
2022/03/05 03:50:07;;;;;;;16.67;7.68;;;2.90;95.50;;;;;;5051116;28;20489;-64
2022/03/05 03:52:33;;;;;;;12.65;7.30;;;2.90;95.70;;;;;;5053348;28;20095;-64
2022/03/05 03:54:59;;;;;;;12.95;7.55;;;2.90;95.60;;;;;;5033801;28;20029;-64
2022/03/05 03:57:25;;;;;;;11.63;6.90;;;2.80;95.60;;;;;;5052882;28;20025;-64
2022/03/05 03:59:52;;;;;;;11.52;6.80;;;2.80;95.70;;;;;;5051279;28;20508;-64
2022/03/05 04:02:19;;;;;;;14.27;8.35;;;2.80;95.80;;;;;;5052950;28;20041;-64
2022/03/05 04:04:44;;;;;;;13.48;6.63;;;2.80;95.70;;;;;;5052003;28;20465;-63
2022/03/05 04:09:54;;;;;;;12.38;6.40;;;2.80;95.80;;;;;;5051648;28;20036;-64
2022/03/05 04:12:20;;;;;;;14.73;7.88;;;2.80;95.70;;;;;;5042125;28;20044;-63
2022/03/05 04:14:46;;;;;;;15.05;7.50;;;2.80;95.80;;;;;;5050885;28;20032;-63
2022/03/05 04:17:11;;;;;;;10.70;6.82;;;2.80;95.80;;;;;;5046940;28;20071;-63
2022/03/05 04:19:37;;;;;;;11.25;7.00;;;2.80;95.90;;;;;;5050584;28;20400;-64
2022/03/05 04:22:03;;;;;;;15.02;7.75;;;2.80;95.80;;;;;;5052704;28;20115;-63
2022/03/05 04:24:28;;;;;;;14.45;6.95;;;2.70;95.90;;;;;;5052010;28;20392;-63
2022/03/05 04:26:54;;;;;;;14.02;7.35;;;2.70;95.90;;;;;;5035236;28;20051;-64
2022/03/05 04:29:20;;;;;;;14.10;8.18;;;2.70;95.90;;;;;;5052964;28;20059;-63
2022/03/05 04:31:45;;;;;;;16.48;9.15;;;2.70;96.00;;;;;;5049487;28;20464;-65
2022/03/05 04:34:10;;;;;;;14.52;8.13;;;2.70;96.00;;;;;;5047794;28;20075;-64
2022/03/05 04:36:36;;;;;;;14.10;8.15;;;2.70;96.00;;;;;;5034740;28;20523;-64
2022/03/05 04:39:02;;;;;;;14.13;7.18;;;2.70;95.90;;;;;;5045008;28;20127;-63
2022/03/05 04:41:27;;;;;;;15.75;7.70;;;2.70;95.90;;;;;;5050459;28;20641;-64
2022/03/05 04:43:53;;;;;;;12.77;7.75;;;2.70;96.00;;;;;;5052263;28;20043;-64
2022/03/05 04:46:18;;;;;;;15.65;9.23;;;2.70;96.20;;;;;;5051075;28;20021;-63
2022/03/05 04:48:44;;;;;;;16.70;7.85;;;2.70;96.00;;;;;;5051402;28;20029;-63
2022/03/05 04:51:09;;;;;;;11.38;7.43;;;2.70;96.00;;;;;;5038614;28;20037;-63
2022/03/05 04:53:35;;;;;;;15.75;8.30;;;2.70;96.00;;;;;;5051859;28;20111;-63
2022/03/05 04:56:00;;;;;;;13.80;8.23;;;2.60;96.00;;;;;;5051172;28;20040;-63
2022/03/05 04:58:26;;;;;;;15.07;7.95;;;2.60;96.00;;;;;;5052079;28;20515;-63
2022/03/05 05:00:51;;;;;;;15.48;8.18;;;2.50;96.10;;;;;;5049705;28;20058;-63
2022/03/05 05:03:17;;;;;;;16.05;8.75;;;2.50;96.20;;;;;;5050473;28;20457;-63
2022/03/05 05:05:42;;;;;;;17.73;8.30;;;2.50;96.20;;;;;;5050546;28;20040;-63
2022/03/05 05:08:08;;;;;;;16.48;8.57;;;2.40;96.10;;;;;;5050616;28;20041;-63
2022/03/05 05:10:33;;;;;;;14.18;8.63;;;2.60;96.20;;;;;;5054132;28;20547;-63
2022/03/05 05:12:59;;;;;;;17.35;8.45;;;2.50;96.10;;;;;;5047921;28;20116;-63
2022/03/05 05:15:24;;;;;;;13.90;7.95;;;2.40;96.10;;;;;;5014573;28;20393;-63
2022/03/05 05:17:50;;;;;;;15.15;8.30;;;2.40;96.20;;;;;;5032261;28;20018;-64
2022/03/05 05:20:16;;;;;;;14.75;8.40;;;2.50;96.20;;;;;;5036184;28;20159;-64
2022/03/05 05:22:41;;;;;;;14.73;8.38;;;2.40;96.10;;;;;;5049756;28;20079;-63
2022/03/05 05:25:07;;;;;;;14.02;9.35;;;2.40;96.20;;;;;;5050574;28;20032;-64
2022/03/05 05:27:37;;;;;;;18.55;8.88;;;2.40;96.20;;;;;;5050159;28;20077;-64
2022/03/05 05:30:04;;;;;;;16.75;8.93;;;2.40;96.20;;;;;;5047485;28;20033;-63
2022/03/05 05:32:29;;;;;;;18.27;8.88;;;2.40;96.30;;;;;;5051046;28;20035;-64
2022/03/05 05:34:55;;;;;;;15.95;9.43;;;2.40;96.20;;;;;;5050116;28;20031;-64
2022/03/05 05:37:20;;;;;;;20.80;11.15;;;2.40;96.30;;;;;;5051256;28;20476;-64
2022/03/05 05:39:46;;;;;;;17.15;8.73;;;2.30;96.30;;;;;;5047479;28;20036;-65
2022/03/05 05:42:11;;;;;;;13.73;8.55;;;2.30;96.40;;;;;;5049192;28;20542;-66
2022/03/05 05:44:37;;;;;;;12.85;8.25;;;2.20;96.30;;;;;;5048817;28;20124;-66
2022/03/05 05:47:03;;;;;;;20.00;9.00;;;2.20;96.50;;;;;;5051018;28;20028;-66
2022/03/05 05:49:29;;;;;;;21.38;9.68;;;2.20;96.40;;;;;;5050496;28;20416;-67
2022/03/05 05:51:54;;;;;;;14.80;9.07;;;2.20;96.50;;;;;;5037249;28;20495;-66
2022/03/05 05:54:20;;;;;;;11.88;7.30;;;2.20;96.50;;;;;;5051749;28;20021;-66
2022/03/05 05:56:45;;;;;;;14.20;8.60;;;2.20;96.40;;;;;;5048997;28;20025;-66
2022/03/05 05:59:11;;;;;;;14.20;8.73;;;2.10;96.50;;;;;;5051360;28;20017;-65
2022/03/05 06:01:36;;;;;;;17.30;8.43;;;2.10;96.70;;;;;;5033868;28;20053;-66
2022/03/05 06:04:02;;;;;;;16.05;8.48;;;2.00;96.60;;;;;;5050512;28;20056;-66
2022/03/05 06:06:27;;;;;;;16.67;8.52;;;2.10;96.60;;;;;;5043881;28;20503;-66
2022/03/05 06:08:53;;;;;;;13.68;8.95;;;2.10;96.60;;;;;;5048799;28;20052;-66
2022/03/05 06:11:18;;;;;;;15.05;8.98;;;2.00;96.70;;;;;;5034825;28;20071;-66
2022/03/05 06:13:44;;;;;;;16.77;9.60;;;2.00;96.70;;;;;;5032611;28;20050;-66
2022/03/05 06:16:09;;;;;;;17.65;9.45;;;2.10;96.80;;;;;;5043684;28;20024;-66
2022/03/05 06:18:35;;;;;;;15.32;8.55;;;2.10;96.80;;;;;;5051054;28;20548;-66
2022/03/05 06:21:01;;;;;;;18.40;10.07;;;2.00;96.70;;;;;;5053009;28;20033;-66
2022/03/05 06:23:26;;;;;;;14.88;8.70;;;2.00;96.70;;;;;;5054699;28;20025;-66
2022/03/05 06:25:52;;;;;;;22.90;11.25;;;2.00;96.80;;;;;;5053229;28;20029;-67
2022/03/05 06:28:18;;;;;;;14.63;8.50;;;2.00;96.80;;;;;;5055118;28;20052;-66
2022/03/05 06:30:44;;;;;;;15.10;9.07;;;2.00;96.70;;;;;;5042811;28;20582;-67
2022/03/05 06:33:09;;;;;;;21.08;10.43;;;2.10;96.70;;;;;;5054108;28;20191;-66
2022/03/05 06:35:35;;;;;;;17.08;9.77;;;2.10;96.80;;;;;;5060103;28;20495;-66
2022/03/05 06:38:00;;;;;;;17.98;9.45;;;2.00;96.80;;;;;;5047246;28;20048;-65
2022/03/05 06:40:25;;;;;;;17.38;9.25;;;2.10;96.70;;;;;;5047327;28;20030;-65
2022/03/05 06:42:51;;;;;;;19.67;10.52;;;2.10;96.70;;;;;;5039946;28;20515;-64
2022/03/05 06:45:17;;;;;;;19.00;9.60;;;2.10;96.80;;;;;;5043639;28;20025;-64
2022/03/05 06:47:43;;;;;;;18.60;10.38;;;2.10;96.80;;;;;;5053463;28;20420;-64
2022/03/05 06:50:10;;;;;;;18.05;10.52;;;2.30;96.80;;;;;;5051017;28;20025;-65
2022/03/05 06:52:36;;;;;;;19.92;11.60;;;2.20;96.80;;;;;;5067131;28;20032;-64
2022/03/05 06:55:01;;;;;;;17.27;10.05;;;2.30;96.70;;;;;;5047250;28;20484;-64
2022/03/05 06:57:27;;;;;;;21.02;10.25;;;2.30;96.70;;;;;;5049409;28;20029;-65
2022/03/05 06:59:53;;;;;;;18.45;10.27;;;2.40;96.60;;;;;;5043257;28;20481;-65
2022/03/05 07:02:19;;;;;;;19.40;9.68;;;2.50;96.60;;;;;;5039474;28;20063;-65
2022/03/05 07:04:45;;;;;;;17.05;9.88;;;2.50;96.50;;;;;;5038259;28;20129;-65
2022/03/05 07:07:10;;;;;;;15.52;9.32;;;2.60;96.50;;;;;;5056748;28;20436;-65
2022/03/05 07:09:36;;;;;;;18.60;10.63;;;2.60;96.40;;;;;;5049816;28;20502;-65
2022/03/05 07:12:02;;;;;;;19.70;10.27;;;2.60;96.40;;;;;;5049656;28;20109;-65
2022/03/05 07:14:27;;;;;;;17.55;9.15;;;2.70;96.30;;;;;;5041974;28;20025;-65
2022/03/05 07:16:54;;;;;;;17.25;9.02;;;2.60;96.20;;;;;;5045104;28;20033;-65
2022/03/05 07:19:20;;;;;;;21.20;9.82;;;2.80;96.30;;;;;;5050334;28;20035;-65
2022/03/05 07:21:45;;;;;;;17.55;9.55;;;2.70;96.20;;;;;;5051747;28;20025;-65
2022/03/05 07:24:10;;;;;;;15.60;9.05;;;2.80;96.30;;;;;;5042604;28;20031;-65
2022/03/05 07:26:36;;;;;;;17.48;9.90;;;2.90;96.20;;;;;;5051448;28;20045;-64
2022/03/05 07:29:02;;;;;;;16.02;8.95;;;2.90;96.20;;;;;;5035157;28;20025;-64
2022/03/05 07:31:28;;;;;;;18.38;8.88;;;2.90;96.10;;;;;;5038280;28;20500;-64
2022/03/05 07:33:53;;;;;;;18.58;8.45;;;3.00;96.00;;;;;;5057023;28;20028;-65
2022/03/05 07:36:19;;;;;;;18.00;9.88;;;3.00;95.90;;;;;;5036821;28;20023;-65
2022/03/05 07:38:45;;;;;;;16.95;9.73;;;3.00;95.90;;;;;;5052755;28;20095;-64
2022/03/05 07:41:11;;;;;;;17.17;9.15;;;3.00;95.90;;;;;;5024459;28;20083;-64
2022/03/05 07:43:37;;;;;;;15.88;9.25;;;3.10;95.80;;;;;;5052288;28;20041;-64
2022/03/05 07:46:03;;;;;;;16.38;8.57;;;3.10;95.70;;;;;;5032644;28;20056;-64
2022/03/05 07:48:28;;;;;;;16.00;8.70;;;3.10;95.70;;;;;;5056561;28;20090;-64
2022/03/05 07:50:54;;;;;;;15.05;8.13;;;3.10;95.60;;;;;;5041180;28;20033;-64
2022/03/05 07:53:20;;;;;;;17.58;9.30;;;3.20;95.70;;;;;;5041921;28;20164;-64
2022/03/05 07:55:46;;;;;;;17.80;9.73;;;3.20;95.60;;;;;;5041860;28;20036;-64
2022/03/05 07:58:11;;;;;;;17.15;8.23;;;3.30;95.50;;;;;;5051171;28;20036;-64
2022/03/05 08:00:37;;;;;;;14.40;8.63;;;3.20;95.50;;;;;;5053562;28;20020;-65
2022/03/05 08:03:03;;;;;;;15.20;8.85;;;3.30;95.40;;;;;;5053704;28;20076;-66
2022/03/05 08:05:28;;;;;;;14.52;8.75;;;3.30;95.40;;;;;;5056399;28;20033;-66
2022/03/05 08:07:57;;;;;;;14.27;8.15;;;3.40;95.40;;;;;;5060101;28;20029;-65
2022/03/05 08:10:22;;;;;;;14.68;8.77;;;3.50;95.40;;;;;;5049563;28;20306;-66
2022/03/05 08:12:48;;;;;;;16.52;8.52;;;3.50;95.30;;;;;;5057024;28;20028;-65
2022/03/05 08:15:13;;;;;;;16.70;8.77;;;3.50;95.10;;;;;;5052046;28;20036;-66
2022/03/05 08:17:50;;;;;;;15.23;9.30;;;3.50;95.00;;;;;;5049144;28;20420;-66
2022/03/05 08:20:16;;;;;;;14.40;8.70;;;3.60;95.00;;;;;;5047619;28;20111;-65
2022/03/05 08:22:41;;;;;;;13.35;8.15;;;3.70;95.10;;;;;;5051568;28;20021;-66
2022/03/05 08:25:07;;;;;;;14.57;8.93;;;3.70;95.00;;;;;;5049853;28;20036;-66
2022/03/05 08:27:33;;;;;;;16.85;8.45;;;3.70;94.80;;;;;;5051693;28;20108;-65
2022/03/05 08:29:58;;;;;;;16.55;8.70;;;3.80;94.80;;;;;;5050526;28;20064;-65
2022/03/05 08:32:24;;;;;;;16.95;10.00;;;3.80;94.80;;;;;;5046016;28;20024;-65
2022/03/05 08:34:49;;;;;;;14.95;8.98;;;3.80;94.70;;;;;;5050441;28;20116;-66
2022/03/05 08:37:15;;;;;;;17.75;9.68;;;3.80;94.50;;;;;;5044188;28;20483;-65
2022/03/05 08:39:40;;;;;;;16.42;9.00;;;3.80;94.40;;;;;;5040544;28;20014;-63
2022/03/05 08:42:07;;;;;;;16.52;8.82;;;3.80;94.50;;;;;;5051170;28;20351;-65
2022/03/05 08:44:33;;;;;;;16.10;8.60;;;3.90;94.50;;;;;;5058252;28;20126;-65
2022/03/05 08:46:58;;;;;;;16.65;7.93;;;4.00;94.50;;;;;;5050204;28;20059;-64
2022/03/05 08:49:24;;;;;;;13.00;7.72;;;4.00;94.60;;;;;;5046280;28;20384;-64
2022/03/05 08:51:49;;;;;;;18.90;8.50;;;4.10;94.60;;;;;;5051597;28;20023;-64
2022/03/05 08:54:15;;;;;;;16.95;9.18;;;4.30;94.60;;;;;;5052064;28;20083;-65
2022/03/05 08:56:40;;;;;;;15.10;8.60;;;4.30;94.50;;;;;;5059926;28;20029;-64
2022/03/05 08:59:06;;;;;;;14.52;8.65;;;4.30;94.20;;;;;;5051169;28;20033;-65
2022/03/05 09:01:31;;;;;;;16.15;8.63;;;4.30;94.00;;;;;;5054213;28;20161;-64
2022/03/05 09:03:57;;;;;;;14.27;8.02;;;4.30;94.00;;;;;;5052607;28;20060;-64
2022/03/05 09:06:22;;;;;;;14.63;8.60;;;4.40;93.80;;;;;;5042441;28;20045;-64
2022/03/05 09:08:48;;;;;;;13.82;9.05;;;4.40;93.70;;;;;;5057403;28;20195;-65
2022/03/05 09:11:13;;;;;;;14.13;7.65;;;4.50;93.60;;;;;;5048034;28;20107;-65
2022/03/05 09:13:39;;;;;;;13.45;7.72;;;4.50;93.60;;;;;;5044840;28;20495;-64
2022/03/05 09:16:04;;;;;;;14.95;9.57;;;4.50;93.40;;;;;;5048901;28;20029;-64
2022/03/05 09:18:30;;;;;;;18.30;8.02;;;4.50;93.40;;;;;;5044113;28;20073;-65
2022/03/05 09:20:56;;;;;;;13.50;8.32;;;4.60;93.50;;;;;;5031729;28;20022;-64
2022/03/05 09:23:22;;;;;;;14.55;8.40;;;4.60;93.60;;;;;;5043902;28;20485;-64
2022/03/05 09:25:47;;;;;;;15.18;8.30;;;4.70;93.60;;;;;;5040650;28;20037;-64
2022/03/05 09:28:13;;;;;;;13.57;8.30;;;4.80;93.40;;;;;;5031839;28;20029;-64
2022/03/05 09:30:38;;;;;;;13.85;8.10;;;4.80;93.20;;;;;;5045748;28;20376;-64
2022/03/05 09:33:04;;;;;;;15.15;8.57;;;4.90;93.30;;;;;;5046683;28;20106;-64
2022/03/05 09:35:29;;;;;;;13.52;8.63;;;4.90;93.20;;;;;;5046945;28;20203;-65
2022/03/05 09:37:55;;;;;;;11.63;7.47;;;5.00;93.20;;;;;;5031255;28;20036;-65
2022/03/05 09:40:20;;;;;;;14.13;8.50;;;5.10;93.40;;;;;;5047495;28;20583;-64
2022/03/05 09:42:46;;;;;;;15.27;9.02;;;5.20;93.10;;;;;;5042648;28;20095;-64
2022/03/05 09:45:13;;;;;;;12.52;7.68;;;5.10;92.60;;;;;;5043725;28;20037;-64
2022/03/05 09:47:40;;;;;;;14.90;8.30;;;5.20;92.50;;;;;;5043476;28;20036;-65
2022/03/05 09:50:07;;;;;;;13.27;7.30;;;5.10;92.20;;;;;;5049979;28;20063;-63
2022/03/05 09:52:33;;;;;;;14.05;8.57;;;5.20;92.60;;;;;;5047200;28;20127;-64
2022/03/05 09:54:58;;;;;;;13.23;7.80;;;5.20;92.60;;;;;;5049352;28;20125;-64
2022/03/05 09:57:24;;;;;;;12.50;6.70;;;5.30;92.90;;;;;;5057864;28;20032;-64
2022/03/05 09:59:50;;;;;;;12.90;7.80;;;5.50;92.70;;;;;;5049767;28;20033;-65
2022/03/05 10:02:17;;;;;;;13.63;8.90;;;5.40;92.30;;;;;;5052546;28;20416;-64
2022/03/05 10:04:43;;;;;;;13.60;6.78;;;5.40;91.80;;;;;;5038652;28;20453;-64
2022/03/05 10:07:10;;;;;;;10.40;6.63;;;5.50;92.00;;;;;;5053247;28;20021;-64
2022/03/05 10:09:37;;;;;;;11.45;7.10;;;5.50;91.90;;;;;;5053763;28;20087;-65
2022/03/05 10:12:27;;;;;;;13.10;7.50;;;5.60;91.60;;;;;;5046874;28;20021;-64
2022/03/05 10:15:22;;;;;;;12.32;8.18;;;5.60;91.10;;;;;;5042519;28;20370;-64
2022/03/05 10:17:59;;;;;;;13.38;7.40;;;5.50;90.60;;;;;;5038683;28;20428;-64
2022/03/05 10:20:30;;;;;;;12.30;7.60;;;5.50;91.00;;;;;;5047365;28;20044;-64
2022/03/05 10:23:03;;;;;;;15.50;7.30;;;5.50;91.30;;;;;;5041619;28;20025;-64
2022/03/05 10:25:37;;;;;;;13.27;7.68;;;5.60;91.00;;;;;;5031898;28;20034;-64
2022/03/05 10:28:07;;;;;;;9.63;6.85;;;5.60;90.90;;;;;;5040868;28;20109;-64
2022/03/05 10:30:35;;;;;;;10.88;7.80;;;5.60;91.00;;;;;;5043899;28;20029;-64
2022/03/05 10:33:01;;;;;;;12.52;7.22;;;5.70;91.00;;;;;;5034599;28;20124;-64
2022/03/05 10:35:26;;;;;;;9.98;6.47;;;5.80;90.90;;;;;;5047114;28;20108;-65
2022/03/05 10:37:53;;;;;;;11.55;7.10;;;5.90;90.90;;;;;;5053478;28;20048;-64
2022/03/05 10:40:56;;;;;;;11.15;6.88;;;6.00;90.90;;;;;;5043685;28;20423;-64
2022/03/05 10:43:23;;;;;;;12.02;7.35;;;6.00;90.60;;;;;;5037323;28;20043;-63
2022/03/05 10:45:54;;;;;;;10.45;6.55;;;6.10;90.60;;;;;;5048769;28;20098;-65
2022/03/05 10:48:29;;;;;;;13.23;7.50;;;6.20;90.60;;;;;;5051443;28;20101;-64
2022/03/05 10:51:00;;;;;;;10.05;6.47;;;6.40;90.70;;;;;;5041394;28;20029;-65
2022/03/05 10:53:55;;;;;;;10.95;6.63;;;6.50;90.60;;;;;;5042968;28;20110;-64
2022/03/05 10:56:29;;;;;;;11.80;7.32;;;6.80;90.50;;;;;;5031779;28;20033;-64
2022/03/05 10:58:59;;;;;;;11.63;7.03;;;6.90;90.30;;;;;;5055338;28;20151;-64
2022/03/05 11:01:25;;;;;;;9.80;6.03;;;7.00;89.10;;;;;;5047097;28;20288;-64
2022/03/05 11:03:52;;;;;;;10.18;6.13;;;7.00;89.80;;;;;;5053176;28;20052;-64
2022/03/05 11:06:19;;;;;;;9.25;6.18;;;7.20;89.80;;;;;;5045925;28;20606;-64
2022/03/05 11:08:46;;;;;;;9.40;5.78;;;7.40;90.00;;;;;;5053908;28;20025;-64
2022/03/05 11:11:13;;;;;;;12.18;7.03;;;7.60;89.30;;;;;;5043915;28;20102;-64
2022/03/05 11:13:39;;;;;;;9.80;6.20;;;7.80;88.90;;;;;;5037421;28;20034;-64
2022/03/05 11:16:04;;;;;;;11.70;6.57;;;7.80;87.90;;;;;;5037149;28;20022;-64
2022/03/05 11:18:30;;;;;;;12.73;7.60;;;7.90;86.60;;;;;;5052982;28;20380;-64
2022/03/05 11:20:56;;;;;;;10.45;6.90;;;8.00;85.80;;;;;;5048866;28;20092;-64
2022/03/05 11:23:23;;;;;;;11.18;6.97;;;7.90;83.50;;;;;;5028888;28;20471;-65
2022/03/05 11:25:49;;;;;;;9.93;6.68;;;7.60;81.30;;;;;;5037587;28;20026;-66
2022/03/05 11:28:20;;;;;;;9.93;6.90;;;7.40;81.50;;;;;;5048225;28;20108;-64
2022/03/05 11:30:46;;;;;;;9.75;6.57;;;7.30;81.90;;;;;;5053900;28;20032;-64
2022/03/05 11:33:13;;;;;;;10.10;7.05;;;7.20;82.10;;;;;;5059204;28;20024;-64
2022/03/05 11:35:44;;;;;;;10.50;7.07;;;7.10;81.20;;;;;;5057301;28;20392;-65
2022/03/05 11:38:33;;;;;;;8.93;6.88;;;7.00;82.00;;;;;;5057753;28;20032;-64
2022/03/05 11:40:59;;;;;;;11.73;6.82;;;6.90;81.90;;;;;;5056195;28;20056;-64
2022/03/05 11:43:26;;;;;;;9.13;6.28;;;6.90;82.40;;;;;;5071480;28;20550;-64
2022/03/05 11:46:02;;;;;;;10.35;6.38;;;7.00;82.90;;;;;;5073433;28;20028;-65
2022/03/05 11:48:28;;;;;;;9.80;7.03;;;7.10;83.10;;;;;;5056870;28;20036;-64
2022/03/05 11:51:00;;;;;;;10.07;6.20;;;7.10;83.00;;;;;;5053457;28;20052;-64
2022/03/05 11:53:27;;;;;;;10.25;6.20;;;7.20;83.00;;;;;;5057477;28;20032;-65
2022/03/05 11:55:53;;;;;;;10.25;6.55;;;7.30;82.10;;;;;;5053100;28;20029;-64
2022/03/05 11:58:26;;;;;;;11.15;6.65;;;7.30;81.40;;;;;;5060133;28;20078;-64
2022/03/05 12:00:54;;;;;;;8.98;6.60;;;7.30;80.30;;;;;;5064165;28;20028;-64
2022/03/05 12:03:39;;;;;;;9.55;6.25;;;7.20;79.10;;;;;;5062550;28;20053;-64
2022/03/05 12:06:06;;;;;;;8.27;5.53;;;7.20;80.50;;;;;;5051981;28;20029;-64
2022/03/05 12:08:31;;;;;;;9.38;5.97;;;7.20;80.90;;;;;;5052335;28;20103;-64
2022/03/05 12:11:15;;;;;;;8.75;5.50;;;7.40;81.00;;;;;;5049832;28;20040;-64
2022/03/05 12:13:45;;;;;;;8.18;5.75;;;7.40;79.90;;;;;;5046668;28;20035;-64
2022/03/05 12:16:17;;;;;;;8.05;5.47;;;7.50;79.40;;;;;;5051568;28;20100;-64
2022/03/05 12:18:44;;;;;;;7.72;5.47;;;7.40;76.90;;;;;;5050607;28;20029;-64
2022/03/05 12:21:10;;;;;;;8.98;5.07;;;7.40;76.30;;;;;;5058899;28;20502;-64
2022/03/05 12:23:36;;;;;;;8.52;4.60;;;7.30;76.90;;;;;;5045220;28;20045;-64
2022/03/05 12:26:04;;;;;;;7.90;5.05;;;7.30;76.90;;;;;;5050141;28;20024;-65
2022/03/05 12:28:45;;;;;;;9.18;4.95;;;7.30;76.30;;;;;;5059082;28;20362;-64
2022/03/05 12:31:18;;;;;;;7.97;5.30;;;7.30;76.50;;;;;;5047721;28;20548;-64
2022/03/05 12:33:51;;;;;;;10.07;5.63;;;7.40;76.60;;;;;;5037765;28;20108;-64
2022/03/05 12:36:18;;;;;;;9.10;5.60;;;7.30;76.40;;;;;;5056073;28;20468;-65
2022/03/05 12:38:52;;;;;;;7.70;4.60;;;7.40;77.30;;;;;;5040171;28;20021;-65
2022/03/05 12:41:18;;;;;;;8.02;5.43;;;7.50;78.00;;;;;;5060532;28;20422;-64
2022/03/05 12:43:44;;;;;;;7.22;4.38;;;7.50;75.50;;;;;;5036444;28;20039;-65
2022/03/05 12:46:10;;;;;;;7.82;4.78;;;7.50;76.20;;;;;;5053952;28;20037;-64
2022/03/05 12:48:35;;;;;;;8.70;5.10;;;7.50;76.40;;;;;;5069095;28;20078;-65